Time;durP1;ratioP1;P1;durP2;ratioP2;P2;SDS_P1;SDS_P2;PMS_P1;PMS_P2;Temp;Humidity;BMP_temperature;BMP_pressure;BME280_temperature;BME280_humidity;BME280_pressure;Samples;Min_cycle;Max_cycle;Signal;HPM_P1;HPM_P2
2023/01/12 04:01:01;;;;;;;0.30;0.30;;;14.50;52.70;;;;;;5644661;23;45792;-60
2023/01/12 04:03:27;;;;;;;0.52;0.30;;;14.50;52.70;;;;;;4860019;28;47439;-55
2023/01/12 04:05:52;;;;;;;0.30;0.30;;;14.50;52.70;;;;;;4938733;28;45517;-60
2023/01/12 04:08:18;;;;;;;0.10;0.10;;;14.50;52.70;;;;;;4921337;28;45145;-54
2023/01/12 04:10:44;;;;;;;0.30;0.30;;;14.50;52.70;;;;;;4907355;28;45942;-54
2023/01/12 04:13:09;;;;;;;0.32;0.20;;;14.50;52.70;;;;;;4906452;28;46499;-59
2023/01/12 04:15:37;;;;;;;0.35;0.35;;;14.50;52.70;;;;;;4912571;28;45191;-57
2023/01/12 04:18:03;;;;;;;0.35;0.20;;;14.50;52.80;;;;;;4913605;28;45595;-57
2023/01/12 04:20:29;;;;;;;0.32;0.30;;;14.50;52.70;;;;;;4896392;28;45456;-56
2023/01/12 04:22:54;;;;;;;0.47;0.30;;;14.50;52.80;;;;;;4916812;28;45114;-60
2023/01/12 04:25:21;;;;;;;0.30;0.25;;;14.50;52.70;;;;;;4899548;28;45326;-55
2023/01/12 04:27:50;;;;;;;0.57;0.30;;;14.50;52.70;;;;;;4888934;28;45091;-60
2023/01/12 04:30:17;;;;;;;0.43;0.43;;;14.50;52.70;;;;;;4896395;28;46112;-59
2023/01/12 04:32:43;;;;;;;0.30;0.30;;;14.50;52.70;;;;;;4901531;28;45338;-55
2023/01/12 04:35:10;;;;;;;0.35;0.28;;;14.50;52.70;;;;;;4918690;28;45045;-58
2023/01/12 04:37:36;;;;;;;0.30;0.20;;;14.50;52.70;;;;;;4891839;28;45844;-55
2023/01/12 04:40:02;;;;;;;0.30;0.20;;;14.50;52.70;;;;;;4915599;28;45397;-56
2023/01/12 04:45:12;;;;;;;0.40;0.30;;;14.50;52.70;;;;;;4913756;28;45266;-57
2023/01/12 04:47:38;;;;;;;0.63;0.40;;;14.50;52.70;;;;;;4911588;28;45772;-60
2023/01/12 04:50:04;;;;;;;0.47;0.28;;;14.50;52.70;;;;;;4922990;28;46106;-58
2023/01/12 04:52:29;;;;;;;0.50;0.20;;;14.50;52.70;;;;;;4924928;28;46008;-56
2023/01/12 04:54:55;;;;;;;0.40;0.30;;;14.50;52.70;;;;;;4926360;28;45475;-58
2023/01/12 04:57:20;;;;;;;0.47;0.38;;;14.50;52.70;;;;;;4924852;28;45296;-54
2023/01/12 04:59:46;;;;;;;0.52;0.22;;;14.50;52.70;;;;;;4920609;28;45180;-59
2023/01/12 05:02:11;;;;;;;0.30;0.30;;;14.50;52.70;;;;;;4918371;28;46174;-59
2023/01/12 05:04:37;;;;;;;0.20;0.20;;;14.50;52.70;;;;;;4921977;28;45541;-58
2023/01/12 05:07:02;;;;;;;0.47;0.25;;;14.50;52.70;;;;;;4924563;28;45507;-56
2023/01/12 05:12:12;;;;;;;0.50;0.40;;;14.50;52.70;;;;;;4926026;28;45396;-56
2023/01/12 05:14:37;;;;;;;0.30;0.30;;;14.50;52.80;;;;;;4923889;28;45527;-56
2023/01/12 05:17:03;;;;;;;0.80;0.45;;;14.50;52.70;;;;;;4918855;28;45203;-57
2023/01/12 05:19:29;;;;;;;0.73;0.30;;;14.50;52.70;;;;;;4923076;28;44749;-57
2023/01/12 05:21:54;;;;;;;0.30;0.30;;;14.40;52.60;;;;;;4922492;28;45595;-55
2023/01/12 05:24:20;;;;;;;0.30;0.30;;;14.50;52.70;;;;;;4924212;28;45322;-59
2023/01/12 05:26:45;;;;;;;0.28;0.28;;;14.50;52.70;;;;;;4921439;28;45486;-54
2023/01/12 05:29:11;;;;;;;0.30;0.30;;;14.50;52.70;;;;;;4919416;28;45390;-57
2023/01/12 05:31:37;;;;;;;0.73;0.50;;;14.40;52.70;;;;;;4923068;28;45801;-54
2023/01/12 05:34:02;;;;;;;0.82;0.20;;;14.50;52.80;;;;;;4924590;28;45343;-55
2023/01/12 05:36:28;;;;;;;0.40;0.30;;;14.50;52.70;;;;;;4906947;28;46819;-57
2023/01/12 05:38:54;;;;;;;0.68;0.32;;;14.40;52.60;;;;;;4925886;28;46739;-59
2023/01/12 05:41:21;;;;;;;0.40;0.30;;;14.40;52.60;;;;;;4925849;28;45917;-56
2023/01/12 05:43:50;;;;;;;0.43;0.40;;;14.40;52.70;;;;;;4928484;28;45370;-58
2023/01/12 05:46:19;;;;;;;0.40;0.40;;;14.50;52.70;;;;;;4914208;28;45438;-56
2023/01/12 05:48:45;;;;;;;0.70;0.40;;;14.50;52.70;;;;;;4929775;28;45475;-62
2023/01/12 05:51:10;;;;;;;0.20;0.20;;;14.40;52.70;;;;;;4927176;28;45659;-56
2023/01/12 05:53:36;;;;;;;0.20;0.20;;;14.40;52.70;;;;;;4932758;28;45611;-60
2023/01/12 05:56:09;;;;;;;0.35;0.30;;;14.40;52.60;;;;;;4927923;28;45155;-57
2023/01/12 05:58:35;;;;;;;0.28;0.17;;;14.40;52.70;;;;;;4930101;28;45519;-59
2023/01/12 06:01:04;;;;;;;0.45;0.25;;;14.40;52.70;;;;;;4912961;28;47685;-56
2023/01/12 06:03:30;;;;;;;0.50;0.30;;;14.40;52.70;;;;;;4927757;28;45284;-58
2023/01/12 06:05:57;;;;;;;0.82;0.40;;;14.40;52.60;;;;;;4927715;28;45593;-59
2023/01/12 06:08:23;;;;;;;0.32;0.30;;;14.40;52.60;;;;;;4930610;28;44900;-57
2023/01/12 06:10:49;;;;;;;0.60;0.30;;;14.40;52.60;;;;;;4926405;28;45903;-52
2023/01/12 06:16:03;;;;;;;0.28;0.20;;;14.40;52.70;;;;;;4928835;28;44965;-58
2023/01/12 06:18:32;;;;;;;0.40;0.30;;;14.40;52.60;;;;;;4927914;28;44947;-58
2023/01/12 06:21:02;;;;;;;0.25;0.25;;;14.40;52.60;;;;;;4927511;28;45365;-56
2023/01/12 06:23:27;;;;;;;0.50;0.30;;;14.40;52.60;;;;;;4927318;28;45665;-55
2023/01/12 06:25:53;;;;;;;0.20;0.20;;;14.40;52.60;;;;;;4929064;28;46133;-57
2023/01/12 06:28:18;;;;;;;0.43;0.40;;;14.40;52.60;;;;;;4928470;28;45588;-59
2023/01/12 06:30:44;;;;;;;0.47;0.20;;;14.40;52.60;;;;;;4927086;28;45290;-57
2023/01/12 06:33:09;;;;;;;0.32;0.30;;;14.40;52.70;;;;;;4941140;28;44855;-54
2023/01/12 06:35:35;;;;;;;0.40;0.25;;;14.40;52.70;;;;;;4927782;28;44701;-55
2023/01/12 06:38:00;;;;;;;0.63;0.30;;;14.40;52.60;;;;;;4927334;28;44970;-59
2023/01/12 06:40:26;;;;;;;1.15;0.30;;;14.40;52.60;;;;;;4927426;28;47861;-56
2023/01/12 06:42:51;;;;;;;1.40;0.30;;;14.40;52.70;;;;;;4916503;28;45724;-65
2023/01/12 06:45:17;;;;;;;0.40;0.28;;;14.40;52.60;;;;;;4925349;28;44967;-57
2023/01/12 06:47:48;;;;;;;0.60;0.30;;;14.40;52.60;;;;;;4927104;28;45227;-52
2023/01/12 06:50:14;;;;;;;0.32;0.22;;;14.40;52.60;;;;;;4909367;28;45559;-57
2023/01/12 06:52:40;;;;;;;0.20;0.20;;;14.40;52.60;;;;;;4909676;28;45793;-51
2023/01/12 06:55:05;;;;;;;0.30;0.30;;;14.40;52.70;;;;;;4924936;28;44774;-54
2023/01/12 06:57:31;;;;;;;3.42;0.70;;;14.40;52.50;;;;;;4927535;28;45625;-57
2023/01/12 06:59:57;;;;;;;4.10;1.02;;;14.10;51.40;;;;;;4925631;28;45572;-60
2023/01/12 07:02:22;;;;;;;5.88;1.23;;;13.90;51.70;;;;;;4909523;28;45523;-56
2023/01/12 07:04:48;;;;;;;8.10;1.33;;;13.80;52.10;;;;;;4905838;28;46791;-55
2023/01/12 07:07:13;;;;;;;5.50;0.98;;;13.80;52.60;;;;;;4908097;28;44739;-55
2023/01/12 07:09:39;;;;;;;3.85;1.15;;;13.90;52.20;;;;;;4909093;28;45511;-56
2023/01/12 07:12:04;;;;;;;4.05;1.10;;;14.10;52.20;;;;;;4907350;28;45502;-54
2023/01/12 07:14:30;;;;;;;5.18;0.90;;;14.20;51.90;;;;;;4908099;28;44908;-50
2023/01/12 07:16:56;;;;;;;2.17;0.65;;;14.40;51.60;;;;;;4908866;28;45644;-53
2023/01/12 07:19:21;;;;;;;3.72;1.17;;;14.60;51.40;;;;;;4912358;28;46961;-53
2023/01/12 07:21:48;;;;;;;4.70;0.93;;;14.80;51.10;;;;;;4896617;28;45475;-54
2023/01/12 07:24:13;;;;;;;1.73;0.75;;;15.10;51.00;;;;;;4911751;28;45545;-54
2023/01/12 07:26:39;;;;;;;4.20;0.80;;;15.20;50.70;;;;;;4877215;28;45517;-56
2023/01/12 07:29:04;;;;;;;2.60;0.82;;;15.40;50.60;;;;;;4895045;28;45718;-53
2023/01/12 07:31:30;;;;;;;3.67;0.90;;;15.60;50.50;;;;;;4892860;28;45549;-54
2023/01/12 07:33:55;;;;;;;1.63;0.70;;;15.70;50.30;;;;;;4906488;28;45326;-53
2023/01/12 07:36:21;;;;;;;3.40;0.55;;;15.80;50.10;;;;;;4908808;28;45464;-57
2023/01/12 07:38:47;;;;;;;2.10;0.65;;;16.00;50.00;;;;;;4894328;28;45958;-51
2023/01/12 07:43:57;;;;;;;1.35;0.60;;;16.40;49.90;;;;;;4892080;28;45724;-58
2023/01/12 07:46:22;;;;;;;4.38;0.70;;;16.50;49.80;;;;;;4908897;28;45290;-57
2023/01/12 07:48:48;;;;;;;1.17;0.70;;;16.60;49.60;;;;;;4896554;28;46366;-56
2023/01/12 07:51:13;;;;;;;1.70;0.50;;;16.80;49.50;;;;;;4890698;28;45489;-57
2023/01/12 07:53:39;;;;;;;1.55;0.50;;;17.00;50.00;;;;;;4892867;28;45267;-53
2023/01/12 07:56:05;;;;;;;1.98;0.68;;;17.10;49.30;;;;;;4906924;28;45273;-56
2023/01/12 07:58:30;;;;;;;2.10;0.50;;;17.20;49.20;;;;;;4892441;28;46074;-56
2023/01/12 08:00:59;;;;;;;1.95;0.60;;;17.40;49.10;;;;;;4892381;28;47759;-53
2023/01/12 08:03:25;;;;;;;2.53;0.70;;;17.50;49.00;;;;;;4924661;28;45048;-56
2023/01/12 08:05:51;;;;;;;2.58;0.60;;;17.70;48.90;;;;;;4927821;28;45620;-57
2023/01/12 08:08:16;;;;;;;2.85;0.70;;;17.80;48.80;;;;;;4926918;28;46704;-54
2023/01/12 08:10:44;;;;;;;2.60;0.63;;;17.90;48.70;;;;;;4925992;28;45282;-53
2023/01/12 08:13:09;;;;;;;3.00;0.73;;;18.10;48.60;;;;;;4926417;28;45328;-54
2023/01/12 08:15:37;;;;;;;2.60;0.73;;;18.20;48.40;;;;;;4926741;28;44868;-51
2023/01/12 08:18:06;;;;;;;1.08;0.55;;;18.30;48.40;;;;;;4923201;28;45948;-53
2023/01/12 08:20:35;;;;;;;1.50;0.60;;;18.50;48.20;;;;;;4906497;28;45494;-53
2023/01/12 08:23:15;;;;;;;2.10;0.60;;;18.60;48.10;;;;;;4906885;28;45394;-55
2023/01/12 08:25:43;;;;;;;1.63;0.77;;;18.70;47.70;;;;;;4927832;28;45484;-53
2023/01/12 08:28:12;;;;;;;1.85;0.55;;;18.90;47.90;;;;;;4908988;28;46170;-58
2023/01/12 08:30:37;;;;;;;1.88;0.60;;;19.00;47.90;;;;;;4911078;28;45578;-52
2023/01/12 08:33:03;;;;;;;1.67;0.50;;;19.10;47.70;;;;;;4908660;28;45226;-54
2023/01/12 08:35:29;;;;;;;3.40;0.50;;;19.20;47.60;;;;;;4927503;28;45337;-56
2023/01/12 08:37:55;;;;;;;1.98;0.77;;;19.30;47.50;;;;;;4925286;28;48003;-59
2023/01/12 08:40:21;;;;;;;1.83;0.47;;;19.50;47.40;;;;;;4909252;28;45515;-56
2023/01/12 08:42:48;;;;;;;0.88;0.50;;;19.60;47.30;;;;;;4926091;28;45302;-56
2023/01/12 08:45:14;;;;;;;3.45;0.50;;;19.70;47.20;;;;;;4927418;28;45461;-53
2023/01/12 08:47:43;;;;;;;0.50;0.30;;;19.80;47.10;;;;;;4927558;28;46083;-54
2023/01/12 08:50:08;;;;;;;1.98;0.68;;;19.90;47.00;;;;;;4938919;28;45548;-56
2023/01/12 08:52:34;;;;;;;1.92;0.47;;;20.10;46.90;;;;;;4928146;28;45438;-54
2023/01/12 08:55:00;;;;;;;3.00;0.52;;;20.20;46.80;;;;;;4922512;28;45503;-54
2023/01/12 08:57:25;;;;;;;1.00;0.40;;;20.30;46.70;;;;;;4939040;28;46186;-57
2023/01/12 08:59:51;;;;;;;1.50;0.40;;;20.40;46.50;;;;;;4928033;28;45374;-54
2023/01/12 09:02:16;;;;;;;1.30;0.50;;;20.50;46.50;;;;;;4925227;28;45370;-56
2023/01/12 09:04:42;;;;;;;1.38;0.52;;;20.60;46.40;;;;;;4927842;28;45764;-57
2023/01/12 09:07:11;;;;;;;1.80;0.60;;;20.70;46.40;;;;;;4927966;28;45299;-53
2023/01/12 09:09:37;;;;;;;0.90;0.50;;;20.80;46.30;;;;;;4926037;28;47735;-57
2023/01/12 09:12:02;;;;;;;1.48;0.40;;;20.90;46.30;;;;;;4925649;28;45137;-54
2023/01/12 09:14:28;;;;;;;1.58;0.60;;;20.90;46.20;;;;;;4927739;28;45536;-54
2023/01/12 09:16:55;;;;;;;1.02;0.50;;;21.00;46.20;;;;;;4931455;28;46593;-53
2023/01/12 09:19:21;;;;;;;1.27;0.57;;;21.00;46.10;;;;;;4925939;28;45285;-55
2023/01/12 09:21:47;;;;;;;0.85;0.50;;;21.10;46.00;;;;;;4927641;28;45413;-55
2023/01/12 09:24:13;;;;;;;1.40;0.52;;;21.20;46.00;;;;;;4929618;28;45312;-56
2023/01/12 09:26:40;;;;;;;2.97;0.40;;;21.20;45.90;;;;;;4930200;28;45703;-57
2023/01/12 09:29:06;;;;;;;2.47;0.40;;;21.30;45.80;;;;;;4928901;28;45250;-56
2023/01/12 09:31:32;;;;;;;0.85;0.43;;;21.40;45.80;;;;;;4930880;28;45971;-55
2023/01/12 09:33:58;;;;;;;1.50;0.60;;;21.50;45.70;;;;;;4930017;28;45444;-63
2023/01/12 09:36:25;;;;;;;1.33;0.52;;;21.50;45.60;;;;;;4908612;28;45436;-53
2023/01/12 09:38:51;;;;;;;2.05;0.63;;;21.60;45.60;;;;;;4932146;28;48602;-53
2023/01/12 09:47:43;;;;;;;9.38;0.85;;;21.80;45.30;;;;;;4914833;28;45525;-57
2023/01/12 09:50:16;;;;;;;1.38;0.40;;;21.80;44.80;;;;;;4942118;28;45498;-57
2023/01/12 09:53:16;;;;;;;0.52;0.40;;;21.90;45.20;;;;;;4928267;28;45466;-56
2023/01/12 09:56:05;;;;;;;1.60;0.55;;;21.90;44.80;;;;;;4926194;28;45837;-53
2023/01/12 09:59:02;;;;;;;1.02;0.43;;;22.00;45.10;;;;;;4930375;28;45463;-53
2023/01/12 10:01:27;;;;;;;1.95;0.50;;;22.10;44.60;;;;;;4908518;28;44695;-56
2023/01/12 10:03:53;;;;;;;0.47;0.30;;;22.10;45.10;;;;;;4929836;28;45466;-56
2023/01/12 10:06:19;;;;;;;1.13;0.52;;;22.20;45.00;;;;;;4927178;28;45476;-54
2023/01/12 10:08:49;;;;;;;1.23;0.50;;;22.20;45.00;;;;;;4927539;28;45968;-54
2023/01/12 10:11:20;;;;;;;1.55;0.50;;;22.30;45.30;;;;;;4911836;28;46087;-57
2023/01/12 10:14:04;;;;;;;1.67;0.30;;;22.40;44.80;;;;;;4947026;28;44802;-54
2023/01/12 10:17:07;;;;;;;3.35;0.52;;;22.40;44.80;;;;;;4924766;28;45219;-56
2023/01/12 10:20:00;;;;;;;0.80;0.28;;;22.40;44.70;;;;;;4930504;28;50955;-58
2023/01/12 10:22:37;;;;;;;0.77;0.20;;;22.60;44.40;;;;;;4922006;28;44662;-58
2023/01/12 10:25:26;;;;;;;1.08;0.50;;;22.60;44.70;;;;;;4928885;28;45241;-55
2023/01/12 10:27:53;;;;;;;0.80;0.40;;;22.60;44.10;;;;;;4929491;28;45569;-55
2023/01/12 10:30:48;;;;;;;1.15;0.55;;;22.70;44.60;;;;;;4927380;28;45258;-57
2023/01/12 10:33:26;;;;;;;1.60;0.65;;;22.80;43.90;;;;;;4918906;28;45520;-57
2023/01/12 10:36:05;;;;;;;1.23;0.50;;;22.80;44.10;;;;;;4928620;28;46363;-53
2023/01/12 10:38:36;;;;;;;0.55;0.30;;;22.80;44.40;;;;;;4928056;28;45318;-56
2023/01/12 10:41:18;;;;;;;1.95;0.40;;;22.90;44.40;;;;;;4927511;28;45420;-61
2023/01/12 10:43:45;;;;;;;0.40;0.25;;;22.90;43.90;;;;;;4925117;28;45548;-54
2023/01/12 10:46:18;;;;;;;0.57;0.30;;;23.00;44.40;;;;;;4927282;28;45393;-52
2023/01/12 10:48:47;;;;;;;1.02;0.32;;;23.00;44.10;;;;;;4929301;28;45488;-55
2023/01/12 10:51:27;;;;;;;1.05;0.30;;;23.10;44.20;;;;;;4928414;28;45838;-60
2023/01/12 10:54:09;;;;;;;0.80;0.30;;;23.10;43.90;;;;;;4896798;28;45261;-54
2023/01/12 10:56:42;;;;;;;0.77;0.28;;;23.10;44.20;;;;;;4927871;28;45247;-53
2023/01/12 10:59:11;;;;;;;;;;;23.20;44.00;;;;;;4926550;28;45642;-58
2023/01/12 11:01:47;;;;;;;1.50;0.43;;;23.20;43.40;;;;;;4925996;28;45493;-55
2023/01/12 11:04:23;;;;;;;0.40;0.38;;;23.30;43.90;;;;;;4924622;28;46254;-64
2023/01/12 11:07:02;;;;;;;1.15;0.30;;;23.30;44.10;;;;;;4928763;28;45411;-53
2023/01/12 11:09:28;;;;;;;0.88;0.30;;;23.40;43.70;;;;;;4915436;28;45343;-52
2023/01/12 11:11:58;;;;;;;0.68;0.20;;;23.40;44.00;;;;;;4931101;28;45430;-58
2023/01/12 11:14:37;;;;;;;0.80;0.30;;;23.50;44.00;;;;;;4931241;28;44753;-54
2023/01/12 11:17:32;;;;;;;1.70;0.50;;;23.50;43.70;;;;;;4911929;28;45233;-51
2023/01/12 11:19:59;;;;;;;0.75;0.30;;;23.50;43.60;;;;;;4910654;28;45714;-53
2023/01/12 11:22:26;;;;;;;0.60;0.20;;;23.50;44.00;;;;;;4910883;28;45807;-54
2023/01/12 11:24:56;;;;;;;0.88;0.45;;;23.50;44.00;;;;;;4902061;28;45272;-56
2023/01/12 11:27:25;;;;;;;1.27;0.50;;;23.50;43.90;;;;;;4900506;28;45329;-56
2023/01/12 11:29:59;;;;;;;1.58;0.50;;;23.50;43.70;;;;;;4915501;28;45504;-53
2023/01/12 11:32:27;;;;;;;0.68;0.30;;;23.60;43.70;;;;;;4910630;28;46180;-55
2023/01/12 11:35:03;;;;;;;0.98;0.30;;;23.60;43.80;;;;;;4914748;28;45303;-52
2023/01/12 11:37:29;;;;;;;1.02;0.47;;;23.60;43.80;;;;;;4910262;28;45178;-56
2023/01/12 11:40:03;;;;;;;1.77;0.55;;;23.60;44.20;;;;;;4910392;28;44751;-62
2023/01/12 11:45:19;;;;;;;1.00;0.32;;;23.70;43.70;;;;;;4915880;28;48345;-56
2023/01/12 11:47:53;;;;;;;1.05;0.30;;;23.70;43.70;;;;;;4912297;28;45242;-55
2023/01/12 11:50:26;;;;;;;0.65;0.28;;;23.70;43.50;;;;;;4892619;28;45571;-56
2023/01/12 11:52:53;;;;;;;1.65;0.55;;;23.60;43.70;;;;;;4910852;28;46586;-55
2023/01/12 11:55:29;;;;;;;0.57;0.20;;;23.60;43.70;;;;;;4916665;28;44944;-54
2023/01/12 11:58:09;;;;;;;0.77;0.20;;;23.60;43.50;;;;;;4916714;28;45047;-57
2023/01/12 12:01:25;;;;;;;0.80;0.30;;;23.70;43.80;;;;;;4912667;28;45414;-51
2023/01/12 12:04:02;;;;;;;0.57;0.30;;;23.70;43.10;;;;;;4834828;29;45818;-52
2023/01/12 12:07:06;;;;;;;2.63;0.47;;;23.70;43.50;;;;;;4823630;29;44865;-55
2023/01/12 12:09:42;;;;;;;0.68;0.30;;;23.70;43.40;;;;;;4900909;28;45371;-53
2023/01/12 12:12:21;;;;;;;0.30;0.20;;;23.70;43.40;;;;;;4912435;28;45728;-55
2023/01/12 12:15:05;;;;;;;0.40;0.17;;;23.70;43.30;;;;;;4929626;28;45253;-55
2023/01/12 12:17:55;;;;;;;0.80;0.30;;;23.80;43.50;;;;;;4932999;28;45319;-56
2023/01/12 12:20:29;;;;;;;0.82;0.30;;;23.90;43.50;;;;;;4895641;28;44906;-54
2023/01/12 12:23:26;;;;;;;0.40;0.22;;;23.90;43.40;;;;;;4915023;28;45321;-53
2023/01/12 12:26:17;;;;;;;0.55;0.25;;;24.00;43.40;;;;;;4909847;28;45305;-56
2023/01/12 12:29:23;;;;;;;0.65;0.30;;;24.00;43.40;;;;;;4921735;28;45683;-55
2023/01/12 12:32:25;;;;;;;1.60;0.30;;;24.00;43.00;;;;;;4927409;28;45208;-57
2023/01/12 12:35:05;;;;;;;0.73;0.20;;;24.00;42.90;;;;;;4924799;28;45401;-53
2023/01/12 12:37:38;;;;;;;1.30;0.20;;;24.10;43.40;;;;;;4911468;28;46273;-57
2023/01/12 12:40:03;;;;;;;;;;;24.10;43.10;;;;;;4909482;28;45482;-52
2023/01/12 12:45:55;;;;;;;0.85;0.20;;;24.20;43.00;;;;;;4927670;28;46078;-50
2023/01/12 12:48:25;;;;;;;0.32;0.25;;;24.30;43.00;;;;;;4906393;28;46070;-58
2023/01/12 12:51:07;;;;;;;0.93;0.20;;;24.30;43.20;;;;;;4916486;28;45658;-55
2023/01/12 12:53:42;;;;;;;1.27;0.17;;;24.30;42.80;;;;;;4929564;28;45284;-58
2023/01/12 12:56:09;;;;;;;0.10;0.10;;;24.30;43.00;;;;;;4913286;28;45614;-53
2023/01/12 12:58:42;;;;;;;0.95;0.30;;;24.30;43.20;;;;;;4900052;28;45496;-52
2023/01/12 13:01:23;;;;;;;0.32;0.20;;;24.30;43.00;;;;;;4929401;28;45138;-53
2023/01/12 13:03:51;;;;;;;1.00;0.30;;;24.30;42.90;;;;;;4928079;28;44952;-53
2023/01/12 13:06:26;;;;;;;0.40;0.28;;;24.30;43.20;;;;;;4913514;28;45156;-51
2023/01/12 13:08:56;;;;;;;0.65;0.32;;;24.30;43.20;;;;;;4917501;28;46623;-54
2023/01/12 13:11:53;;;;;;;0.30;0.20;;;24.30;43.20;;;;;;4908904;28;45966;-56
2023/01/12 13:14:26;;;;;;;0.73;0.38;;;24.30;42.90;;;;;;4926196;28;45388;-51
2023/01/12 13:16:52;;;;;;;;;;;24.30;43.30;;;;;;4934198;28;45251;-49
2023/01/12 13:19:41;;;;;;;0.10;0.10;;;24.30;42.80;;;;;;4916264;28;45468;-53
2023/01/12 13:22:32;;;;;;;0.80;0.20;;;24.30;43.00;;;;;;4931606;28;45043;-56
2023/01/12 13:25:18;;;;;;;0.65;0.30;;;24.30;43.10;;;;;;4912247;28;45559;-54
2023/01/12 13:30:27;;;;;;;0.28;0.20;;;24.30;43.10;;;;;;4927041;28;47487;-56
2023/01/12 13:33:11;;;;;;;0.43;0.17;;;24.30;43.30;;;;;;4929507;28;45587;-50
2023/01/12 13:35:43;;;;;;;0.40;0.20;;;24.30;43.30;;;;;;4925783;28;45218;-52
2023/01/12 13:38:26;;;;;;;0.73;0.28;;;24.30;43.30;;;;;;4930412;28;45151;-57
2023/01/12 13:40:51;;;;;;;0.45;0.20;;;24.30;43.10;;;;;;4928624;28;45394;-54
2023/01/12 13:43:29;;;;;;;0.70;0.30;;;24.30;43.30;;;;;;4914338;28;45112;-55
2023/01/12 13:46:03;;;;;;;0.65;0.20;;;24.30;43.10;;;;;;4889462;28;45238;-54
2023/01/12 13:48:30;;;;;;;0.80;0.20;;;24.30;43.30;;;;;;4912707;28;46166;-53
2023/01/12 13:51:01;;;;;;;2.70;0.20;;;24.30;43.30;;;;;;4930219;28;45641;-54
2023/01/12 13:53:28;;;;;;;1.00;0.30;;;24.30;43.20;;;;;;4911801;28;45235;-52
2023/01/12 13:55:55;;;;;;;1.20;0.30;;;24.30;43.30;;;;;;4926731;28;45311;-54
2023/01/12 13:58:21;;;;;;;0.50;0.30;;;24.30;43.30;;;;;;4908905;28;45662;-53
2023/01/12 14:00:59;;;;;;;1.33;0.20;;;24.40;43.40;;;;;;4927861;28;47895;-55
2023/01/12 14:03:45;;;;;;;0.85;0.30;;;24.40;43.20;;;;;;4911917;28;45246;-56
2023/01/12 14:06:33;;;;;;;0.47;0.20;;;24.40;43.10;;;;;;4882716;28;46168;-53
2023/01/12 14:09:07;;;;;;;1.30;0.32;;;24.40;43.30;;;;;;4892338;28;45241;-52
2023/01/12 14:11:49;;;;;;;1.13;0.40;;;24.40;43.40;;;;;;4910499;28;46549;-55
2023/01/12 14:17:48;;;;;;;0.38;0.20;;;24.40;43.20;;;;;;4913484;28;45541;-51
2023/01/12 14:20:19;;;;;;;0.75;0.32;;;24.40;43.30;;;;;;4902657;28;45306;-54
2023/01/12 14:22:45;;;;;;;0.55;0.30;;;24.40;43.30;;;;;;4915579;28;45581;-59
2023/01/12 14:25:21;;;;;;;0.30;0.20;;;24.40;43.40;;;;;;4934220;28;48135;-51
2023/01/12 14:27:51;;;;;;;0.45;0.25;;;24.40;43.20;;;;;;4898652;28;45322;-54
2023/01/12 14:30:17;;;;;;;1.48;0.30;;;24.40;43.30;;;;;;4930919;28;45843;-54
2023/01/12 14:32:43;;;;;;;0.35;0.30;;;24.40;43.40;;;;;;4932087;28;46574;-50
2023/01/12 14:35:16;;;;;;;0.40;0.20;;;24.40;43.30;;;;;;4905476;28;44988;-56
2023/01/12 14:37:42;;;;;;;;;;;24.40;43.30;;;;;;4917980;28;45318;-57
2023/01/12 14:40:23;;;;;;;0.25;0.17;;;24.40;43.00;;;;;;4912728;28;45213;-55
2023/01/12 14:48:42;;;;;;;0.10;0.10;;;24.40;43.20;;;;;;4928718;28;45229;-54
2023/01/12 14:51:24;;;;;;;1.25;0.30;;;24.40;44.00;;;;;;4929929;28;45401;-56
2023/01/12 14:53:55;;;;;;;2.08;0.17;;;24.40;43.20;;;;;;4915218;28;44893;-57
2023/01/12 14:56:22;;;;;;;0.60;0.40;;;24.40;43.30;;;;;;4927072;28;45117;-54
2023/01/12 14:58:48;;;;;;;1.25;0.40;;;24.40;44.00;;;;;;4916122;28;45229;-55
2023/01/12 15:01:28;;;;;;;0.73;0.20;;;24.50;43.40;;;;;;4929232;28;45441;-58
2023/01/12 15:03:54;;;;;;;0.60;0.28;;;24.50;43.20;;;;;;4897481;28;45666;-54
2023/01/12 15:06:19;;;;;;;0.13;0.10;;;24.40;43.40;;;;;;4931139;28;45222;-54
2023/01/12 15:08:52;;;;;;;0.47;0.30;;;24.50;43.50;;;;;;4932048;28;45125;-51
2023/01/12 15:11:31;;;;;;;0.57;0.40;;;24.50;43.40;;;;;;4916586;28;45057;-58
2023/01/12 15:13:57;;;;;;;0.32;0.20;;;24.40;43.20;;;;;;4926835;28;45688;-55
2023/01/12 15:27:24;;;;;;;2.80;0.25;;;24.50;43.50;;;;;;4930345;28;44761;-55
2023/01/12 15:29:49;;;;;;;0.68;0.32;;;24.50;43.50;;;;;;4932536;28;45536;-56
2023/01/12 15:32:18;;;;;;;1.02;0.43;;;24.50;43.40;;;;;;4930708;28;45504;-51
2023/01/12 15:34:44;;;;;;;0.55;0.30;;;24.50;43.50;;;;;;4904020;28;44921;-53
2023/01/12 15:37:17;;;;;;;0.90;0.30;;;24.50;43.40;;;;;;4931201;28;45818;-58
2023/01/12 15:39:42;;;;;;;;;;;24.50;43.40;;;;;;4930896;28;45172;-51
2023/01/12 15:42:20;;;;;;;0.20;0.10;;;24.50;43.60;;;;;;4928315;28;45588;-60
2023/01/12 15:44:46;;;;;;;1.52;0.20;;;24.50;43.40;;;;;;4910195;28;45367;-54
2023/01/12 15:47:13;;;;;;;0.50;0.28;;;24.60;43.50;;;;;;4917751;28;45064;-55
2023/01/12 15:49:39;;;;;;;1.05;0.50;;;24.60;43.50;;;;;;4928696;28;45320;-58
2023/01/12 15:52:05;;;;;;;1.02;0.32;;;24.60;43.50;;;;;;4897031;28;45364;-54
2023/01/12 15:54:30;;;;;;;0.13;0.10;;;24.60;43.50;;;;;;4912003;28;45058;-53
2023/01/12 15:56:58;;;;;;;0.80;0.30;;;24.60;43.50;;;;;;4929723;28;45235;-53
2023/01/12 15:59:24;;;;;;;0.63;0.40;;;24.60;43.50;;;;;;4913404;28;44744;-51
2023/01/12 16:01:49;;;;;;;0.38;0.13;;;24.60;43.50;;;;;;4932118;28;45227;-53
2023/01/12 16:04:16;;;;;;;0.65;0.30;;;24.60;43.50;;;;;;4908954;28;46201;-55
2023/01/12 16:06:41;;;;;;;0.43;0.20;;;24.60;43.50;;;;;;4914926;28;45139;-56
2023/01/12 16:09:08;;;;;;;2.72;0.30;;;24.60;43.50;;;;;;4927062;28;45069;-54
2023/01/12 16:11:33;;;;;;;0.20;0.20;;;24.60;43.50;;;;;;4912878;28;45231;-53
2023/01/12 16:13:59;;;;;;;1.48;0.30;;;24.60;43.50;;;;;;4924538;28;46406;-53
2023/01/12 16:16:25;;;;;;;0.47;0.30;;;24.60;43.50;;;;;;4928486;28;45027;-56
2023/01/12 16:18:51;;;;;;;0.57;0.25;;;24.70;43.60;;;;;;4932875;28;45477;-50
2023/01/12 16:21:18;;;;;;;0.32;0.22;;;24.60;43.50;;;;;;4933057;28;44904;-55
2023/01/12 16:23:44;;;;;;;0.35;0.20;;;24.70;43.60;;;;;;4927974;28;47423;-54
2023/01/12 16:26:09;;;;;;;0.20;0.20;;;24.70;43.50;;;;;;4911232;28;45341;-53
2023/01/12 16:28:35;;;;;;;0.35;0.30;;;24.70;43.50;;;;;;4914495;28;45585;-51
2023/01/12 16:31:11;;;;;;;0.35;0.13;;;24.70;43.50;;;;;;4933899;28;45084;-52
2023/01/12 16:33:37;;;;;;;0.22;0.22;;;24.70;43.50;;;;;;4907769;28;46290;-51
2023/01/12 16:36:03;;;;;;;0.17;0.10;;;24.70;43.50;;;;;;4932262;28;45269;-56
2023/01/12 16:38:28;;;;;;;0.25;0.15;;;24.70;43.50;;;;;;4911228;28;45265;-52
2023/01/12 16:40:54;;;;;;;0.52;0.20;;;24.70;43.50;;;;;;4934277;28;44952;-53
2023/01/12 16:43:22;;;;;;;1.45;0.30;;;24.80;43.50;;;;;;4928225;28;45487;-56
2023/01/12 16:45:51;;;;;;;0.40;0.20;;;24.70;43.50;;;;;;4928044;28;45105;-54
2023/01/12 16:48:17;;;;;;;2.05;0.20;;;24.80;43.50;;;;;;4931747;28;45307;-50
2023/01/12 16:50:43;;;;;;;0.30;0.20;;;24.80;43.50;;;;;;4935200;28;44958;-50
2023/01/12 16:53:08;;;;;;;0.55;0.20;;;24.80;43.50;;;;;;4929323;28;45404;-54
2023/01/12 16:55:34;;;;;;;0.20;0.15;;;24.70;43.50;;;;;;4913721;28;45135;-52
2023/01/12 16:58:00;;;;;;;1.08;0.25;;;24.70;43.50;;;;;;4927859;28;45643;-52
2023/01/12 17:00:26;;;;;;;4.05;0.40;;;24.70;43.60;;;;;;4926190;28;45912;-59
2023/01/12 17:02:55;;;;;;;0.60;0.38;;;24.50;43.70;;;;;;4922850;28;46482;-58
2023/01/12 17:05:20;;;;;;;0.40;0.20;;;24.40;43.80;;;;;;4928150;28;45051;-50
2023/01/12 17:07:47;;;;;;;0.28;0.22;;;24.30;44.00;;;;;;4922299;28;45605;-52
2023/01/12 17:10:16;;;;;;;0.20;0.20;;;24.20;44.10;;;;;;4926326;28;45266;-53
2023/01/12 17:12:41;;;;;;;0.52;0.30;;;24.10;44.90;;;;;;4915389;28;47200;-53
2023/01/12 17:15:07;;;;;;;3.65;0.30;;;24.00;44.40;;;;;;4915757;28;44822;-55
2023/01/12 17:17:33;;;;;;;0.25;0.20;;;23.90;44.50;;;;;;4929631;28;45547;-57
2023/01/12 17:19:59;;;;;;;0.57;0.22;;;23.90;44.60;;;;;;4917982;28;45446;-56
2023/01/12 17:22:25;;;;;;;0.28;0.10;;;23.80;44.70;;;;;;4928581;28;46348;-66
2023/01/12 17:24:50;;;;;;;0.47;0.30;;;23.70;44.80;;;;;;4927632;28;46095;-55
2023/01/12 17:27:16;;;;;;;0.22;0.20;;;23.60;44.90;;;;;;4912374;28;45458;-54
2023/01/12 17:29:41;;;;;;;1.25;0.50;;;23.50;45.00;;;;;;4927472;28;45697;-52
2023/01/12 17:32:07;;;;;;;0.85;0.40;;;23.50;45.10;;;;;;4928180;28;45321;-54
2023/01/12 17:34:34;;;;;;;0.32;0.20;;;23.40;45.20;;;;;;4913593;28;45521;-55
2023/01/12 17:37:06;;;;;;;0.20;0.10;;;23.30;45.20;;;;;;4933070;28;46651;-52
2023/01/12 17:39:32;;;;;;;0.60;0.32;;;23.20;45.30;;;;;;4919312;28;45302;-60
2023/01/12 17:44:42;;;;;;;0.60;0.30;;;23.10;45.60;;;;;;4918477;28;47941;-54
2023/01/12 17:47:08;;;;;;;0.47;0.20;;;23.00;45.70;;;;;;4919239;28;46092;-54
2023/01/12 17:49:34;;;;;;;0.30;0.20;;;23.00;45.80;;;;;;4932843;28;45204;-53
2023/01/12 17:52:00;;;;;;;0.50;0.20;;;22.90;45.90;;;;;;4916015;28;45737;-55